Track Кузнецова Софья

Time Latitude Longitude Accuracy (66% radius in meters) Altitude (meters) Speed (km/hour) Bearing (degrees) Battery (%) GPS flag
09:59:20 60.370935 29.556320 16 83 0 122.05093383789 3 1 delete
09:59:07 60.370901 29.556256 12 51 0 210.32292175293 3 1 delete
09:58:55 60.370902 29.556262 8 33 0 199.66691589355 3 1 delete
09:58:42 60.370914 29.556283 8 45 0 199.66691589355 3 1 delete
09:58:30 60.370936 29.556277 8 46 0 196.60224914551 3 1 delete
09:58:17 60.370937 29.556276 8 45 0 196.60224914551 3 1 delete
09:58:04 60.370932 29.556290 8 24 0 196.60224914551 3 1 delete
09:57:51 60.370936 29.556300 8 50 0 26.38391494751 3 1 delete
09:57:38 60.370935 29.556301 8 52 0 26.38391494751 3 1 delete
09:57:25 60.370915 29.556276 12 64 0 26.38391494751 3 1 delete
09:57:11 60.370915 29.556276 16 56 0 26.38391494751 3 1 delete
09:57:10 60.370915 29.556275 8 51 0 26.38391494751 3 1 delete
09:56:59 60.370877 29.556244 12 47 0 26.38391494751 3 1 delete
09:56:46 60.370857 29.556240 12 48 0 201.27519226074 3 1 delete
09:56:37 60.370870 29.556258 8 60 0 201.27519226074 3 1 delete
09:56:33 60.370878 29.556263 8 59 0 201.27519226074 3 1 delete
09:56:19 60.370904 29.556285 8 56 0 201.27519226074 3 1 delete
09:56:07 60.370929 29.556288 8 58 0 31.784200668335 3 1 delete
09:55:57 60.370917 29.556263 12 42 0 31.784200668335 3 1 delete
09:55:54 60.370903 29.556249 8 40 0 31.784200668335 3 1 delete
09:55:42 60.370882 29.556239 8 42 0 31.784200668335 3 1 delete
09:55:29 60.370897 29.556265 8 57 0 31.784200668335 3 1 delete
09:55:16 60.370894 29.556254 6 52 0 31.784200668335 3 1 delete
09:55:02 60.370871 29.556238 8 44 0 201.08360290527 3 1 delete
09:54:50 60.370864 29.556241 8 44 0 201.08360290527 3 1 delete
09:54:38 60.370869 29.556251 8 57 0 207.46141052246 3 1 delete
09:54:26 60.370866 29.556248 12 52 0.090363577008247 207.46141052246 3 1 delete
09:54:23 60.370869 29.556253 12 53 0 202.2883605957 3 1 delete
09:54:13 60.370888 29.556275 8 59 0 202.2883605957 3 1 delete
09:54:00 60.370910 29.556291 8 58 0 205.40464782715 3 1 delete
09:53:47 60.370954 29.556332 12 61 0 26.676080703735 3 1 delete
09:53:34 60.370952 29.556327 8 55 0 28.110418319702 3 1 delete
09:53:22 60.370968 29.556348 8 50 0 28.110418319702 3 1 delete
09:53:09 60.370976 29.556346 8 53 0 216.03646850586 3 1 delete
09:52:56 60.370985 29.556363 8 36 0 216.03646850586 3 1 delete
09:52:43 60.370985 29.556373 6 55 0 191.88696289062 3 1 delete
09:52:31 60.370995 29.556388 6 73 0 20.309501647949 3 1 delete
09:52:23 60.370989 29.556382 8 73 0.61000549793243 20.309501647949 3 1 delete
09:52:18 60.370979 29.556374 6 68 0 180.03504943848 3 1 delete
09:52:04 60.370926 29.556336 8 62 0 180.03504943848 3 1 delete
09:51:54 60.370936 29.556338 8 66 0 288.32455444336 3 1 delete
09:51:49 60.370946 29.556350 8 66 0 288.32455444336 3 1 delete
09:51:41 60.370965 29.556399 6 67 0 199.63273620605 3 1 delete
09:51:29 60.370980 29.556437 8 72 0 209.31381225586 3 1 delete
09:51:17 60.370988 29.556390 6 78 0 209.31381225586 3 1 delete
09:51:04 60.371004 29.556414 8 91 0 189.38262939453 3 1 delete
09:50:53 60.370994 29.556432 16 79 0 189.38262939453 3 1 delete
09:50:39 60.371008 29.556404 8 67 0 88.4521484375 3 1 delete
09:50:26 60.371015 29.556408 8 80 0 88.4521484375 3 1 delete
09:50:13 60.370978 29.556367 8 77 0 88.4521484375 3 1 delete